sensor_id;sensor_type;location;lat;lon;timestamp;pressure;altitude;pressure_sealevel;temperature
40245;BMP280;25963;42.694;23.600;2023-12-28T00:01:22;96246.91;;;0.29
40245;BMP280;25963;42.694;23.600;2023-12-28T00:03:48;96296.06;;;0.60
40245;BMP280;25963;42.694;23.600;2023-12-28T00:06:13;96283.69;;;0.57
40245;BMP280;25963;42.694;23.600;2023-12-28T00:08:40;96299.47;;;0.60
40245;BMP280;25963;42.694;23.600;2023-12-28T00:11:05;96288.19;;;0.56
40245;BMP280;25963;42.694;23.600;2023-12-28T00:13:30;96311.84;;;0.67
40245;BMP280;25963;42.694;23.600;2023-12-28T00:15:56;96317.09;;;0.67
40245;BMP280;25963;42.694;23.600;2023-12-28T00:18:21;96309.59;;;0.66
40245;BMP280;25963;42.694;23.600;2023-12-28T00:20:47;96303.22;;;0.63
40245;BMP280;25963;42.694;23.600;2023-12-28T00:23:12;96293.44;;;0.56
40245;BMP280;25963;42.694;23.600;2023-12-28T00:25:38;96320.47;;;0.64
40245;BMP280;25963;42.694;23.600;2023-12-28T00:28:03;96325.72;;;0.64
40245;BMP280;25963;42.694;23.600;2023-12-28T00:30:29;96303.19;;;0.56
40245;BMP280;25963;42.694;23.600;2023-12-28T00:32:54;96326.47;;;0.65
40245;BMP280;25963;42.694;23.600;2023-12-28T00:35:20;96326.47;;;0.61
40245;BMP280;25963;42.694;23.600;2023-12-28T00:37:45;96321.97;;;0.61
40245;BMP280;25963;42.694;23.600;2023-12-28T00:40:11;96318.94;;;0.56
40245;BMP280;25963;42.694;23.600;2023-12-28T00:42:36;96326.44;;;0.50
40245;BMP280;25963;42.694;23.600;2023-12-28T00:45:02;96315.91;;;0.36
40245;BMP280;25963;42.694;23.600;2023-12-28T00:47:28;96325.31;;;0.37
40245;BMP280;25963;42.694;23.600;2023-12-28T00:49:53;96321.56;;;0.35
40245;BMP280;25963;42.694;23.600;2023-12-28T00:52:19;96323.44;;;0.31
40245;BMP280;25963;42.694;23.600;2023-12-28T00:54:44;96282.88;;;-0.04
40245;BMP280;25963;42.694;23.600;2023-12-28T00:57:09;96341.44;;;0.25
40245;BMP280;25963;42.694;23.600;2023-12-28T00:59:35;96338.44;;;0.27
40245;BMP280;25963;42.694;23.600;2023-12-28T01:02:01;96333.19;;;0.27
40245;BMP280;25963;42.694;23.600;2023-12-28T01:04:27;96330.16;;;0.18
40245;BMP280;25963;42.694;23.600;2023-12-28T01:06:52;96299.38;;;-0.03
40245;BMP280;25963;42.694;23.600;2023-12-28T01:09:18;96338.41;;;0.20
40245;BMP280;25963;42.694;23.600;2023-12-28T01:11:44;96339.56;;;0.19
40245;BMP280;25963;42.694;23.600;2023-12-28T01:14:09;96330.53;;;0.13
40245;BMP280;25963;42.694;23.600;2023-12-28T01:16:35;96330.16;;;0.11
40245;BMP280;25963;42.694;23.600;2023-12-28T01:19:01;96326.34;;;0.01
40245;BMP280;25963;42.694;23.600;2023-12-28T01:21:26;96338.75;;;0.08
40245;BMP280;25963;42.694;23.600;2023-12-28T01:23:53;96286.47;;;-0.33
40245;BMP280;25963;42.694;23.600;2023-12-28T01:26:19;96336.81;;;-0.10
40245;BMP280;25963;42.694;23.600;2023-12-28T01:28:45;96321.47;;;-0.11
40245;BMP280;25963;42.694;23.600;2023-12-28T01:31:10;96327.06;;;-0.13
40245;BMP280;25963;42.694;23.600;2023-12-28T01:33:36;96340.19;;;-0.13
40245;BMP280;25963;42.694;23.600;2023-12-28T01:36:02;96299.19;;;-0.38
40245;BMP280;25963;42.694;23.600;2023-12-28T01:38:27;96340.19;;;-0.13
40245;BMP280;25963;42.694;23.600;2023-12-28T01:40:53;96330.78;;;-0.14
40245;BMP280;25963;42.694;23.600;2023-12-28T01:43:18;96330.41;;;-0.16
40245;BMP280;25963;42.694;23.600;2023-12-28T01:45:44;96340.94;;;-0.12
40245;BMP280;25963;42.694;23.600;2023-12-28T01:48:10;96339.44;;;-0.10
40245;BMP280;25963;42.694;23.600;2023-12-28T01:50:36;96335.31;;;-0.11
40245;BMP280;25963;42.694;23.600;2023-12-28T01:53:03;96339.44;;;-0.10
40245;BMP280;25963;42.694;23.600;2023-12-28T01:55:29;96334.94;;;-0.09
40245;BMP280;25963;42.694;23.600;2023-12-28T01:57:56;96338.66;;;-0.14
40245;BMP280;25963;42.694;23.600;2023-12-28T02:00:22;96315.41;;;-0.22
40245;BMP280;25963;42.694;23.600;2023-12-28T02:02:48;96339.03;;;-0.15
40245;BMP280;25963;42.694;23.600;2023-12-28T02:05:14;96336.03;;;-0.21
40245;BMP280;25963;42.694;23.600;2023-12-28T02:07:39;96329.97;;;-0.32
40245;BMP280;25963;42.694;23.600;2023-12-28T02:10:05;96330.31;;;-0.33
40245;BMP280;25963;42.694;23.600;2023-12-28T02:12:31;96321.66;;;-0.41
40245;BMP280;25963;42.694;23.600;2023-12-28T02:14:57;96323.53;;;-0.45
40245;BMP280;25963;42.694;23.600;2023-12-28T02:17:33;96328.38;;;-0.43
40245;BMP280;25963;42.694;23.600;2023-12-28T02:20:00;96328.03;;;-0.42
40245;BMP280;25963;42.694;23.600;2023-12-28T02:22:26;96317.16;;;-0.40
40245;BMP280;25963;42.694;23.600;2023-12-28T02:25:11;96317.16;;;-0.40
40245;BMP280;25963;42.694;23.600;2023-12-28T02:30:10;96316.78;;;-0.42
40245;BMP280;25963;42.694;23.600;2023-12-28T02:35:25;96313.38;;;-0.50
40245;BMP280;25963;42.694;23.600;2023-12-28T02:37:55;96300.63;;;-0.51
40245;BMP280;25963;42.694;23.600;2023-12-28T02:40:23;96313.03;;;-0.45
40245;BMP280;25963;42.694;23.600;2023-12-28T02:42:50;96293.94;;;-0.42
40245;BMP280;25963;42.694;23.600;2023-12-28T02:45:16;96315.25;;;-0.47
40245;BMP280;25963;42.694;23.600;2023-12-28T02:47:42;96309.69;;;-0.42
40245;BMP280;25963;42.694;23.600;2023-12-28T02:50:09;96295.44;;;-0.37
40245;BMP280;25963;42.694;23.600;2023-12-28T02:52:35;96299.94;;;-0.38
40245;BMP280;25963;42.694;23.600;2023-12-28T02:55:00;96298.44;;;-0.39
40245;BMP280;25963;42.694;23.600;2023-12-28T02:57:25;96305.91;;;-0.48
40245;BMP280;25963;42.694;23.600;2023-12-28T02:59:51;96305.91;;;-0.48
40245;BMP280;25963;42.694;23.600;2023-12-28T03:02:16;96297.97;;;-0.55
40245;BMP280;25963;42.694;23.600;2023-12-28T03:04:41;96300.56;;;-0.62
40245;BMP280;25963;42.694;23.600;2023-12-28T03:07:08;96299.81;;;-0.63
40245;BMP280;25963;42.694;23.600;2023-12-28T03:09:33;96260.41;;;-0.80
40245;BMP280;25963;42.694;23.600;2023-12-28T03:12:00;96289.31;;;-0.70
40245;BMP280;25963;42.694;23.600;2023-12-28T03:14:28;96286.28;;;-0.75
40245;BMP280;25963;42.694;23.600;2023-12-28T03:16:53;96276.53;;;-0.71
40245;BMP280;25963;42.694;23.600;2023-12-28T03:19:18;96303.16;;;-0.66
40245;BMP280;25963;42.694;23.600;2023-12-28T03:21:44;96294.53;;;-0.66
40245;BMP280;25963;42.694;23.600;2023-12-28T03:24:09;96283.31;;;-0.67
40245;BMP280;25963;42.694;23.600;2023-12-28T03:26:40;96269.41;;;-0.74
40245;BMP280;25963;42.694;23.600;2023-12-28T03:29:07;96281.03;;;-0.75
40245;BMP280;25963;42.694;23.600;2023-12-28T03:31:33;96284.00;;;-0.77
40245;BMP280;25963;42.694;23.600;2023-12-28T03:33:59;96296.75;;;-0.75
40245;BMP280;25963;42.694;23.600;2023-12-28T03:36:24;96293.72;;;-0.81
40245;BMP280;25963;42.694;23.600;2023-12-28T03:38:50;96294.50;;;-0.77
40245;BMP280;25963;42.694;23.600;2023-12-28T03:41:19;96294.88;;;-0.78
40245;BMP280;25963;42.694;23.600;2023-12-28T03:43:45;96294.91;;;-0.75
40245;BMP280;25963;42.694;23.600;2023-12-28T03:46:11;96296.34;;;-0.81
40245;BMP280;25963;42.694;23.600;2023-12-28T03:48:37;96306.47;;;-0.79
40245;BMP280;25963;42.694;23.600;2023-12-28T03:51:03;96308.72;;;-0.78
40245;BMP280;25963;42.694;23.600;2023-12-28T03:53:28;96314.69;;;-0.77
40245;BMP280;25963;42.694;23.600;2023-12-28T03:55:56;96309.47;;;-0.81
40245;BMP280;25963;42.694;23.600;2023-12-28T03:58:21;96313.91;;;-0.85
40245;BMP280;25963;42.694;23.600;2023-12-28T04:00:47;96312.44;;;-0.82
40245;BMP280;25963;42.694;23.600;2023-12-28T04:03:12;96311.28;;;-0.85
40245;BMP280;25963;42.694;23.600;2023-12-28T04:05:38;96320.63;;;-0.87
40245;BMP280;25963;42.694;23.600;2023-12-28T04:08:03;96316.88;;;-0.90
40245;BMP280;25963;42.694;23.600;2023-12-28T04:10:31;96316.50;;;-0.92
40245;BMP280;25963;42.694;23.600;2023-12-28T04:12:57;96319.84;;;-0.95
40245;BMP280;25963;42.694;23.600;2023-12-28T04:15:23;96268.59;;;-1.40
40245;BMP280;25963;42.694;23.600;2023-12-28T04:17:49;96329.91;;;-1.00
40245;BMP280;25963;42.694;23.600;2023-12-28T04:20:15;96272.72;;;-1.39
40245;BMP280;25963;42.694;23.600;2023-12-28T04:22:40;96289.25;;;-1.31
40245;BMP280;25963;42.694;23.600;2023-12-28T04:25:08;96323.50;;;-1.06
40245;BMP280;25963;42.694;23.600;2023-12-28T04:27:34;96326.50;;;-1.08
40245;BMP280;25963;42.694;23.600;2023-12-28T04:29:59;96334.69;;;-1.09
40245;BMP280;25963;42.694;23.600;2023-12-28T04:32:24;96330.56;;;-1.14
40245;BMP280;25963;42.694;23.600;2023-12-28T04:34:51;96341.38;;;-1.19
40245;BMP280;25963;42.694;23.600;2023-12-28T04:37:16;96333.47;;;-1.23
40245;BMP280;25963;42.694;23.600;2023-12-28T04:39:41;96336.47;;;-1.21
40245;BMP280;25963;42.694;23.600;2023-12-28T04:42:07;96325.97;;;-1.28
40245;BMP280;25963;42.694;23.600;2023-12-28T04:44:37;96325.97;;;-1.24
40245;BMP280;25963;42.694;23.600;2023-12-28T04:47:03;96324.81;;;-1.27
40245;BMP280;25963;42.694;23.600;2023-12-28T04:49:29;96288.63;;;-1.58
40245;BMP280;25963;42.694;23.600;2023-12-28T04:51:54;96326.69;;;-1.31
40245;BMP280;25963;42.694;23.600;2023-12-28T04:54:20;96326.28;;;-1.33
40245;BMP280;25963;42.694;23.600;2023-12-28T04:56:46;96325.84;;;-1.35
40245;BMP280;25963;42.694;23.600;2023-12-28T04:59:11;96330.00;;;-1.34
40245;BMP280;25963;42.694;23.600;2023-12-28T05:01:43;96229.13;;;-2.01
40245;BMP280;25963;42.694;23.600;2023-12-28T05:04:09;96270.91;;;-1.75
40245;BMP280;25963;42.694;23.600;2023-12-28T05:06:35;96316.50;;;-1.36
40245;BMP280;25963;42.694;23.600;2023-12-28T05:09:00;96323.94;;;-1.38
40245;BMP280;25963;42.694;23.600;2023-12-28T05:11:26;96336.69;;;-1.36
40245;BMP280;25963;42.694;23.600;2023-12-28T05:13:52;96334.41;;;-1.41
40245;BMP280;25963;42.694;23.600;2023-12-28T05:16:18;96332.13;;;-1.43
40245;BMP280;25963;42.694;23.600;2023-12-28T05:18:43;96332.19;;;-1.39
40245;BMP280;25963;42.694;23.600;2023-12-28T05:21:09;96325.81;;;-1.42
40245;BMP280;25963;42.694;23.600;2023-12-28T05:23:34;96328.81;;;-1.40
40245;BMP280;25963;42.694;23.600;2023-12-28T05:25:59;96319.38;;;-1.48
40245;BMP280;25963;42.694;23.600;2023-12-28T05:28:25;96245.19;;;-2.03
40245;BMP280;25963;42.694;23.600;2023-12-28T05:30:51;96295.63;;;-1.69
40245;BMP280;25963;42.694;23.600;2023-12-28T05:33:16;96332.13;;;-1.43
40245;BMP280;25963;42.694;23.600;2023-12-28T05:35:42;96287.28;;;-1.82
40245;BMP280;25963;42.694;23.600;2023-12-28T05:38:07;96279.47;;;-1.78
40245;BMP280;25963;42.694;23.600;2023-12-28T05:40:33;96298.50;;;-1.81
40245;BMP280;25963;42.694;23.600;2023-12-28T05:42:58;96346.66;;;-1.49
40245;BMP280;25963;42.694;23.600;2023-12-28T05:45:24;96359.00;;;-1.53
40245;BMP280;25963;42.694;23.600;2023-12-28T05:47:49;96357.44;;;-1.57
40245;BMP280;25963;42.694;23.600;2023-12-28T05:50:15;96356.31;;;-1.56
40245;BMP280;25963;42.694;23.600;2023-12-28T05:52:40;96359.28;;;-1.61
40245;BMP280;25963;42.694;23.600;2023-12-28T05:55:06;96355.00;;;-1.77
40245;BMP280;25963;42.694;23.600;2023-12-28T05:57:32;96364.41;;;-1.72
40245;BMP280;25963;42.694;23.600;2023-12-28T05:59:57;96309.00;;;-2.11
40245;BMP280;25963;42.694;23.600;2023-12-28T06:02:23;96349.94;;;-1.92
40245;BMP280;25963;42.694;23.600;2023-12-28T06:04:48;96354.78;;;-1.94
40245;BMP280;25963;42.694;23.600;2023-12-28T06:07:14;96366.72;;;-1.93
40245;BMP280;25963;42.694;23.600;2023-12-28T06:09:39;96365.69;;;-1.89
40245;BMP280;25963;42.694;23.600;2023-12-28T06:12:05;96365.25;;;-1.94
40245;BMP280;25963;42.694;23.600;2023-12-28T06:14:31;96367.81;;;-1.98
40245;BMP280;25963;42.694;23.600;2023-12-28T06:16:56;96368.97;;;-1.95
40245;BMP280;25963;42.694;23.600;2023-12-28T06:19:22;96363.72;;;-1.95
40245;BMP280;25963;42.694;23.600;2023-12-28T06:21:48;96359.25;;;-1.95
40245;BMP280;25963;42.694;23.600;2023-12-28T06:24:14;96368.66;;;-1.90
40245;BMP280;25963;42.694;23.600;2023-12-28T06:26:43;96349.88;;;-1.99
40245;BMP280;25963;42.694;23.600;2023-12-28T06:29:09;96367.63;;;-1.82
40245;BMP280;25963;42.694;23.600;2023-12-28T06:31:35;96359.69;;;-1.89
40245;BMP280;25963;42.694;23.600;2023-12-28T06:34:07;96373.34;;;-1.73
40245;BMP280;25963;42.694;23.600;2023-12-28T06:36:32;96375.25;;;-1.70
40245;BMP280;25963;42.694;23.600;2023-12-28T06:38:58;96386.59;;;-1.59
40245;BMP280;25963;42.694;23.600;2023-12-28T06:41:24;96376.84;;;-1.62
40245;BMP280;25963;42.694;23.600;2023-12-28T06:43:50;96382.91;;;-1.54
40245;BMP280;25963;42.694;23.600;2023-12-28T06:46:17;96373.94;;;-1.53
40245;BMP280;25963;42.694;23.600;2023-12-28T06:48:43;96394.16;;;-1.50
40245;BMP280;25963;42.694;23.600;2023-12-28T06:51:18;96386.97;;;-1.57
40245;BMP280;25963;42.694;23.600;2023-12-28T06:53:44;96391.91;;;-1.52
40245;BMP280;25963;42.694;23.600;2023-12-28T06:56:09;96382.22;;;-1.48
40245;BMP280;25963;42.694;23.600;2023-12-28T06:58:35;96371.00;;;-1.48
40245;BMP280;25963;42.694;23.600;2023-12-28T07:01:03;96387.50;;;-1.41
40245;BMP280;25963;42.694;23.600;2023-12-28T07:03:28;96386.75;;;-1.45
40245;BMP280;25963;42.694;23.600;2023-12-28T07:06:00;96388.59;;;-1.45
40245;BMP280;25963;42.694;23.600;2023-12-28T07:08:26;96304.66;;;-2.00
40245;BMP280;25963;42.694;23.600;2023-12-28T07:10:51;96389.78;;;-1.39
40245;BMP280;25963;42.694;23.600;2023-12-28T07:13:17;96353.66;;;-1.60
40245;BMP280;25963;42.694;23.600;2023-12-28T07:15:42;96385.50;;;-1.21
40245;BMP280;25963;42.694;23.600;2023-12-28T07:18:08;96364.53;;;-1.21
40245;BMP280;25963;42.694;23.600;2023-12-28T07:20:33;96382.69;;;-0.98
40245;BMP280;25963;42.694;23.600;2023-12-28T07:22:58;96383.50;;;-0.91
40245;BMP280;25963;42.694;23.600;2023-12-28T07:25:24;96379.81;;;-0.83
40245;BMP280;25963;42.694;23.600;2023-12-28T07:27:49;96387.38;;;-0.74
40245;BMP280;25963;42.694;23.600;2023-12-28T07:30:15;96385.56;;;-0.63
40245;BMP280;25963;42.694;23.600;2023-12-28T07:32:42;96384.50;;;-0.55
40245;BMP280;25963;42.694;23.600;2023-12-28T07:35:07;96378.59;;;-0.45
40245;BMP280;25963;42.694;23.600;2023-12-28T07:37:33;96378.28;;;-0.33
40245;BMP280;25963;42.694;23.600;2023-12-28T07:39:59;96386.22;;;-0.26
40245;BMP280;25963;42.694;23.600;2023-12-28T07:42:24;96382.13;;;-0.16
40245;BMP280;25963;42.694;23.600;2023-12-28T07:44:50;96358.84;;;-0.25
40245;BMP280;25963;42.694;23.600;2023-12-28T07:47:15;96390.16;;;0.12
40245;BMP280;25963;42.694;23.600;2023-12-28T07:49:41;96390.97;;;0.37
40245;BMP280;25963;42.694;23.600;2023-12-28T07:52:07;96387.28;;;0.63
40245;BMP280;25963;42.694;23.600;2023-12-28T07:54:32;96392.53;;;0.70
40245;BMP280;25963;42.694;23.600;2023-12-28T07:56:58;96369.25;;;0.72
40245;BMP280;25963;42.694;23.600;2023-12-28T07:59:24;96384.69;;;0.88
40245;BMP280;25963;42.694;23.600;2023-12-28T08:01:50;96389.59;;;1.07
40245;BMP280;25963;42.694;23.600;2023-12-28T08:04:15;96384.31;;;1.17
40245;BMP280;25963;42.694;23.600;2023-12-28T08:06:41;96394.81;;;1.42
40245;BMP280;25963;42.694;23.600;2023-12-28T08:09:06;96379.38;;;1.58
40245;BMP280;25963;42.694;23.600;2023-12-28T08:11:32;96367.34;;;1.54
40245;BMP280;25963;42.694;23.600;2023-12-28T08:13:57;96394.00;;;1.80
40245;BMP280;25963;42.694;23.600;2023-12-28T08:16:22;96354.94;;;1.61
40245;BMP280;25963;42.694;23.600;2023-12-28T08:18:48;96376.59;;;2.04
40245;BMP280;25963;42.694;23.600;2023-12-28T08:21:13;96382.19;;;2.20
40245;BMP280;25963;42.694;23.600;2023-12-28T08:23:39;96398.28;;;2.33
40245;BMP280;25963;42.694;23.600;2023-12-28T08:26:04;96368.94;;;2.34
40245;BMP280;25963;42.694;23.600;2023-12-28T08:28:30;96401.78;;;2.78
40245;BMP280;25963;42.694;23.600;2023-12-28T08:30:56;96387.00;;;2.91
40245;BMP280;25963;42.694;23.600;2023-12-28T08:33:22;96378.13;;;3.19
40245;BMP280;25963;42.694;23.600;2023-12-28T08:35:48;96391.72;;;3.14
40245;BMP280;25963;42.694;23.600;2023-12-28T08:38:13;96393.25;;;3.11
40245;BMP280;25963;42.694;23.600;2023-12-28T08:40:39;96387.56;;;3.13
40245;BMP280;25963;42.694;23.600;2023-12-28T08:43:04;96387.53;;;3.20
40245;BMP280;25963;42.694;23.600;2023-12-28T08:45:29;96365.03;;;3.45
40245;BMP280;25963;42.694;23.600;2023-12-28T08:47:55;96349.19;;;3.45
40245;BMP280;25963;42.694;23.600;2023-12-28T08:50:21;96375.00;;;3.64
40245;BMP280;25963;42.694;23.600;2023-12-28T08:52:46;96342.31;;;3.85
40245;BMP280;25963;42.694;23.600;2023-12-28T08:55:11;96346.31;;;3.97
40245;BMP280;25963;42.694;23.600;2023-12-28T08:57:37;96337.50;;;4.07
40245;BMP280;25963;42.694;23.600;2023-12-28T09:00:05;96346.91;;;4.38
40245;BMP280;25963;42.694;23.600;2023-12-28T09:02:30;96342.34;;;4.65
40245;BMP280;25963;42.694;23.600;2023-12-28T09:04:58;96353.44;;;4.80
40245;BMP280;25963;42.694;23.600;2023-12-28T09:07:23;96298.06;;;4.46
40245;BMP280;25963;42.694;23.600;2023-12-28T09:09:49;96303.28;;;4.73
40245;BMP280;25963;42.694;23.600;2023-12-28T09:12:14;96268.25;;;4.69
40245;BMP280;25963;42.694;23.600;2023-12-28T09:14:40;96324.66;;;5.25
40245;BMP280;25963;42.694;23.600;2023-12-28T09:17:05;96308.78;;;5.25
40245;BMP280;25963;42.694;23.600;2023-12-28T09:19:31;96314.16;;;5.41
40245;BMP280;25963;42.694;23.600;2023-12-28T09:21:56;96324.00;;;5.60
40245;BMP280;25963;42.694;23.600;2023-12-28T09:24:22;96315.53;;;5.68
40245;BMP280;25963;42.694;23.600;2023-12-28T09:26:47;96319.72;;;5.66
40245;BMP280;25963;42.694;23.600;2023-12-28T09:29:13;96312.00;;;5.71
40245;BMP280;25963;42.694;23.600;2023-12-28T09:31:39;96310.97;;;5.85
40245;BMP280;25963;42.694;23.600;2023-12-28T09:34:04;96306.31;;;5.93
40245;BMP280;25963;42.694;23.600;2023-12-28T09:36:30;96315.41;;;5.92
40245;BMP280;25963;42.694;23.600;2023-12-28T09:38:56;96301.75;;;5.93
40245;BMP280;25963;42.694;23.600;2023-12-28T09:41:25;96265.03;;;5.75
40245;BMP280;25963;42.694;23.600;2023-12-28T09:43:58;96256.75;;;5.90
40245;BMP280;25963;42.694;23.600;2023-12-28T09:46:25;96236.16;;;5.97
40245;BMP280;25963;42.694;23.600;2023-12-28T09:48:54;96240.59;;;6.00
40245;BMP280;25963;42.694;23.600;2023-12-28T09:51:21;96213.81;;;5.98
40245;BMP280;25963;42.694;23.600;2023-12-28T09:53:47;96277.06;;;6.44
40245;BMP280;25963;42.694;23.600;2023-12-28T09:56:13;96252.50;;;6.40
40245;BMP280;25963;42.694;23.600;2023-12-28T09:58:42;96267.91;;;6.78
40245;BMP280;25963;42.694;23.600;2023-12-28T10:01:09;96197.97;;;6.56
40245;BMP280;25963;42.694;23.600;2023-12-28T10:03:35;96224.91;;;6.83
40245;BMP280;25963;42.694;23.600;2023-12-28T10:06:01;96256.66;;;7.15
40245;BMP280;25963;42.694;23.600;2023-12-28T10:08:26;96261.91;;;7.31
40245;BMP280;25963;42.694;23.600;2023-12-28T10:10:52;96249.06;;;7.42
40245;BMP280;25963;42.694;23.600;2023-12-28T10:13:19;96243.09;;;7.51
40245;BMP280;25963;42.694;23.600;2023-12-28T10:15:45;96241.72;;;7.59
40245;BMP280;25963;42.694;23.600;2023-12-28T10:18:10;96222.59;;;7.51
40245;BMP280;25963;42.694;23.600;2023-12-28T10:20:37;96234.06;;;7.73
40245;BMP280;25963;42.694;23.600;2023-12-28T10:23:03;96229.16;;;7.84
40245;BMP280;25963;42.694;23.600;2023-12-28T10:25:31;96236.09;;;7.94
40245;BMP280;25963;42.694;23.600;2023-12-28T10:28:03;96222.56;;;8.02
40245;BMP280;25963;42.694;23.600;2023-12-28T10:30:29;96177.91;;;7.84
40245;BMP280;25963;42.694;23.600;2023-12-28T10:32:55;96210.84;;;8.12
40245;BMP280;25963;42.694;23.600;2023-12-28T10:35:20;96203.25;;;8.23
40245;BMP280;25963;42.694;23.600;2023-12-28T10:37:48;96192.81;;;8.28
40245;BMP280;25963;42.694;23.600;2023-12-28T10:40:17;96191.38;;;8.36
40245;BMP280;25963;42.694;23.600;2023-12-28T10:43:06;96189.59;;;8.33
40245;BMP280;25963;42.694;23.600;2023-12-28T10:45:32;96181.88;;;8.48
40245;BMP280;25963;42.694;23.600;2023-12-28T10:48:05;96185.94;;;8.52
40245;BMP280;25963;42.694;23.600;2023-12-28T10:50:47;96171.03;;;8.55
40245;BMP280;25963;42.694;23.600;2023-12-28T10:53:42;96164.50;;;8.56
40245;BMP280;25963;42.694;23.600;2023-12-28T11:01:31;96146.38;;;8.94
40245;BMP280;25963;42.694;23.600;2023-12-28T11:04:02;96141.38;;;9.05
40245;BMP280;25963;42.694;23.600;2023-12-28T11:06:30;96133.75;;;9.16
40245;BMP280;25963;42.694;23.600;2023-12-28T11:08:57;96136.31;;;9.29
40245;BMP280;25963;42.694;23.600;2023-12-28T11:11:25;96130.44;;;9.43
40245;BMP280;25963;42.694;23.600;2023-12-28T11:13:52;96060.50;;;9.12
40245;BMP280;25963;42.694;23.600;2023-12-28T11:16:19;96109.75;;;9.56
40245;BMP280;25963;42.694;23.600;2023-12-28T11:18:46;96106.50;;;9.70
40245;BMP280;25963;42.694;23.600;2023-12-28T11:21:12;96102.22;;;9.82
40245;BMP280;25963;42.694;23.600;2023-12-28T11:23:38;96110.94;;;9.91
40245;BMP280;25963;42.694;23.600;2023-12-28T11:26:03;96108.72;;;9.99
40245;BMP280;25963;42.694;23.600;2023-12-28T11:28:29;96105.75;;;9.97
40245;BMP280;25963;42.694;23.600;2023-12-28T11:30:56;96093.59;;;10.05
40245;BMP280;25963;42.694;23.600;2023-12-28T11:33:21;96099.84;;;10.11
40245;BMP280;25963;42.694;23.600;2023-12-28T11:35:47;96063.81;;;9.97
40245;BMP280;25963;42.694;23.600;2023-12-28T11:38:15;96081.72;;;10.24
40245;BMP280;25963;42.694;23.600;2023-12-28T11:40:44;96083.22;;;10.34
40245;BMP280;25963;42.694;23.600;2023-12-28T11:43:20;96084.53;;;10.29
40245;BMP280;25963;42.694;23.600;2023-12-28T11:45:51;96091.34;;;10.30
40245;BMP280;25963;42.694;23.600;2023-12-28T11:48:26;96079.91;;;10.39
40245;BMP280;25963;42.694;23.600;2023-12-28T11:50:57;96038.44;;;10.20
40245;BMP280;25963;42.694;23.600;2023-12-28T11:53:23;96075.00;;;10.47
40245;BMP280;25963;42.694;23.600;2023-12-28T11:55:49;96066.66;;;10.54
40245;BMP280;25963;42.694;23.600;2023-12-28T11:58:16;96075.25;;;10.67
40245;BMP280;25963;42.694;23.600;2023-12-28T12:00:42;96074.16;;;10.73
40245;BMP280;25963;42.694;23.600;2023-12-28T12:03:10;96034.19;;;10.55
40245;BMP280;25963;42.694;23.600;2023-12-28T12:05:36;96058.38;;;10.84
40245;BMP280;25963;42.694;23.600;2023-12-28T12:08:01;96054.81;;;10.87
40245;BMP280;25963;42.694;23.600;2023-12-28T12:10:27;96048.25;;;10.97
40245;BMP280;25963;42.694;23.600;2023-12-28T12:12:53;96053.53;;;11.06
40245;BMP280;25963;42.694;23.600;2023-12-28T12:15:18;96051.03;;;11.03
40245;BMP280;25963;42.694;23.600;2023-12-28T12:17:44;96042.69;;;11.10
40245;BMP280;25963;42.694;23.600;2023-12-28T12:20:09;96034.78;;;11.15
40245;BMP280;25963;42.694;23.600;2023-12-28T12:22:35;96044.28;;;11.16
40245;BMP280;25963;42.694;23.600;2023-12-28T12:25:03;96039.66;;;11.17
40245;BMP280;25963;42.694;23.600;2023-12-28T12:27:30;96030.91;;;11.16
40245;BMP280;25963;42.694;23.600;2023-12-28T12:29:56;96038.03;;;11.19
40245;BMP280;25963;42.694;23.600;2023-12-28T12:32:21;96034.16;;;11.20
40245;BMP280;25963;42.694;23.600;2023-12-28T12:34:47;96039.78;;;11.23
40245;BMP280;25963;42.694;23.600;2023-12-28T12:37:13;96028.00;;;11.29
40245;BMP280;25963;42.694;23.600;2023-12-28T12:39:38;96032.91;;;11.31
40245;BMP280;25963;42.694;23.600;2023-12-28T12:42:04;95992.38;;;11.08
40245;BMP280;25963;42.694;23.600;2023-12-28T12:44:29;96027.22;;;11.38
40245;BMP280;25963;42.694;23.600;2023-12-28T12:46:58;96016.56;;;11.29
40245;BMP280;25963;42.694;23.600;2023-12-28T12:49:24;96025.91;;;11.33
40245;BMP280;25963;42.694;23.600;2023-12-28T12:51:50;96000.03;;;11.15
40245;BMP280;25963;42.694;23.600;2023-12-28T12:54:17;96017.78;;;11.28
40245;BMP280;25963;42.694;23.600;2023-12-28T12:56:46;96027.69;;;11.36
40245;BMP280;25963;42.694;23.600;2023-12-28T12:59:12;96024.25;;;11.36
40245;BMP280;25963;42.694;23.600;2023-12-28T13:01:43;95986.84;;;11.12
40245;BMP280;25963;42.694;23.600;2023-12-28T13:04:10;95950.94;;;10.89
40245;BMP280;25963;42.694;23.600;2023-12-28T13:06:35;96021.88;;;11.38
40245;BMP280;25963;42.694;23.600;2023-12-28T13:09:01;96021.66;;;11.27
40245;BMP280;25963;42.694;23.600;2023-12-28T13:11:28;96030.13;;;11.25
40245;BMP280;25963;42.694;23.600;2023-12-28T13:13:53;96031.44;;;11.30
40245;BMP280;25963;42.694;23.600;2023-12-28T13:16:18;96037.41;;;11.25
40245;BMP280;25963;42.694;23.600;2023-12-28T13:18:44;96038.03;;;11.19
40245;BMP280;25963;42.694;23.600;2023-12-28T13:21:09;96026.75;;;11.15
40245;BMP280;25963;42.694;23.600;2023-12-28T13:23:35;96027.50;;;11.16
40245;BMP280;25963;42.694;23.600;2023-12-28T13:26:00;96020.50;;;11.18
40245;BMP280;25963;42.694;23.600;2023-12-28T13:28:25;96004.41;;;11.04
40245;BMP280;25963;42.694;23.600;2023-12-28T13:30:51;96012.94;;;11.17
40245;BMP280;25963;42.694;23.600;2023-12-28T13:33:20;96020.94;;;11.17
40245;BMP280;25963;42.694;23.600;2023-12-28T13:35:46;96001.19;;;11.00
40245;BMP280;25963;42.694;23.600;2023-12-28T13:38:11;96021.75;;;11.08
40245;BMP280;25963;42.694;23.600;2023-12-28T13:40:36;96021.66;;;11.03
40245;BMP280;25963;42.694;23.600;2023-12-28T13:43:02;96018.22;;;11.02
40245;BMP280;25963;42.694;23.600;2023-12-28T13:45:27;96011.59;;;10.98
40245;BMP280;25963;42.694;23.600;2023-12-28T13:47:53;96018.88;;;10.97
40245;BMP280;25963;42.694;23.600;2023-12-28T13:50:18;96019.78;;;10.94
40245;BMP280;25963;42.694;23.600;2023-12-28T13:52:45;96017.28;;;10.91
40245;BMP280;25963;42.694;23.600;2023-12-28T13:55:10;96012.97;;;10.84
40245;BMP280;25963;42.694;23.600;2023-12-28T13:57:37;96011.09;;;10.76
40245;BMP280;25963;42.694;23.600;2023-12-28T14:00:02;96018.84;;;10.74
40245;BMP280;25963;42.694;23.600;2023-12-28T14:02:28;96005.34;;;10.68
40245;BMP280;25963;42.694;23.600;2023-12-28T14:04:54;96004.22;;;10.60
40245;BMP280;25963;42.694;23.600;2023-12-28T14:07:21;95993.84;;;10.53